sensor_id;sensor_type;location;lat;lon;timestamp;temperature;humidity
65884;HTU21D;52663;51.038;5.858;2022-07-30T00:02:18;21.95;54.63
65884;HTU21D;52663;51.038;5.858;2022-07-30T00:04:44;21.93;54.54
65884;HTU21D;52663;51.038;5.858;2022-07-30T00:07:11;21.90;54.45
65884;HTU21D;52663;51.038;5.858;2022-07-30T00:09:37;21.90;54.40
65884;HTU21D;52663;51.038;5.858;2022-07-30T00:12:04;21.82;54.49
65884;HTU21D;52663;51.038;5.858;2022-07-30T00:14:30;21.83;54.42
65884;HTU21D;52663;51.038;5.858;2022-07-30T00:16:56;21.85;54.28
65884;HTU21D;52663;51.038;5.858;2022-07-30T00:19:22;21.81;54.44
65884;HTU21D;52663;51.038;5.858;2022-07-30T00:21:48;21.79;54.64
65884;HTU21D;52663;51.038;5.858;2022-07-30T00:24:14;21.79;54.66
65884;HTU21D;52663;51.038;5.858;2022-07-30T00:26:40;21.76;54.85
65884;HTU21D;52663;51.038;5.858;2022-07-30T00:29:06;21.74;54.97
65884;HTU21D;52663;51.038;5.858;2022-07-30T00:31:31;21.75;55.10
65884;HTU21D;52663;51.038;5.858;2022-07-30T00:33:57;21.73;55.23
65884;HTU21D;52663;51.038;5.858;2022-07-30T00:36:23;21.68;55.45
65884;HTU21D;52663;51.038;5.858;2022-07-30T00:38:51;21.62;55.83
65884;HTU21D;52663;51.038;5.858;2022-07-30T00:41:17;21.53;56.22
65884;HTU21D;52663;51.038;5.858;2022-07-30T00:43:43;21.40;56.82
65884;HTU21D;52663;51.038;5.858;2022-07-30T00:46:09;21.33;57.13
65884;HTU21D;52663;51.038;5.858;2022-07-30T00:48:35;21.33;57.20
65884;HTU21D;52663;51.038;5.858;2022-07-30T00:51:01;21.35;57.16
65884;HTU21D;52663;51.038;5.858;2022-07-30T00:53:27;21.34;57.33
65884;HTU21D;52663;51.038;5.858;2022-07-30T00:55:53;21.30;57.50
65884;HTU21D;52663;51.038;5.858;2022-07-30T00:58:19;21.27;57.64
65884;HTU21D;52663;51.038;5.858;2022-07-30T01:00:44;21.25;57.74
65884;HTU21D;52663;51.038;5.858;2022-07-30T01:03:10;21.18;57.93
65884;HTU21D;52663;51.038;5.858;2022-07-30T01:05:36;21.18;58.01
65884;HTU21D;52663;51.038;5.858;2022-07-30T01:08:02;21.16;58.13
65884;HTU21D;52663;51.038;5.858;2022-07-30T01:10:28;21.11;58.29
65884;HTU21D;52663;51.038;5.858;2022-07-30T01:12:54;21.10;58.34
65884;HTU21D;52663;51.038;5.858;2022-07-30T01:15:20;21.09;58.41
65884;HTU21D;52663;51.038;5.858;2022-07-30T01:17:48;21.08;58.57
65884;HTU21D;52663;51.038;5.858;2022-07-30T01:20:21;21.07;58.54
65884;HTU21D;52663;51.038;5.858;2022-07-30T01:23:12;21.02;58.65
65884;HTU21D;52663;51.038;5.858;2022-07-30T01:25:55;20.98;58.87
65884;HTU21D;52663;51.038;5.858;2022-07-30T01:28:37;20.93;59.02
65884;HTU21D;52663;51.038;5.858;2022-07-30T01:31:06;20.92;59.15
65884;HTU21D;52663;51.038;5.858;2022-07-30T01:33:38;20.92;59.11
65884;HTU21D;52663;51.038;5.858;2022-07-30T01:36:09;20.94;59.15
65884;HTU21D;52663;51.038;5.858;2022-07-30T01:38:36;20.89;59.25
65884;HTU21D;52663;51.038;5.858;2022-07-30T01:41:05;20.79;59.53
65884;HTU21D;52663;51.038;5.858;2022-07-30T01:43:34;20.77;59.74
65884;HTU21D;52663;51.038;5.858;2022-07-30T01:46:02;20.74;59.79
65884;HTU21D;52663;51.038;5.858;2022-07-30T01:48:34;20.70;60.09
65884;HTU21D;52663;51.038;5.858;2022-07-30T01:51:04;20.66;60.32
65884;HTU21D;52663;51.038;5.858;2022-07-30T01:53:35;20.68;60.37
65884;HTU21D;52663;51.038;5.858;2022-07-30T01:56:03;20.64;60.56
65884;HTU21D;52663;51.038;5.858;2022-07-30T01:58:36;20.63;60.70
65884;HTU21D;52663;51.038;5.858;2022-07-30T02:01:13;20.59;60.99
65884;HTU21D;52663;51.038;5.858;2022-07-30T02:03:39;20.55;61.16
65884;HTU21D;52663;51.038;5.858;2022-07-30T02:06:13;20.48;61.35
65884;HTU21D;52663;51.038;5.858;2022-07-30T02:08:52;20.44;61.54
65884;HTU21D;52663;51.038;5.858;2022-07-30T02:11:20;20.41;61.77
65884;HTU21D;52663;51.038;5.858;2022-07-30T02:14:22;20.39;61.83
65884;HTU21D;52663;51.038;5.858;2022-07-30T02:16:54;20.36;62.11
65884;HTU21D;52663;51.038;5.858;2022-07-30T02:19:25;20.30;62.27
65884;HTU21D;52663;51.038;5.858;2022-07-30T02:22:00;20.19;62.76
65884;HTU21D;52663;51.038;5.858;2022-07-30T02:24:32;20.21;62.81
65884;HTU21D;52663;51.038;5.858;2022-07-30T02:27:07;20.24;62.76
65884;HTU21D;52663;51.038;5.858;2022-07-30T02:29:37;20.22;62.87
65884;HTU21D;52663;51.038;5.858;2022-07-30T02:32:08;20.20;62.86
65884;HTU21D;52663;51.038;5.858;2022-07-30T02:34:40;20.17;62.88
65884;HTU21D;52663;51.038;5.858;2022-07-30T02:37:10;20.16;62.73
65884;HTU21D;52663;51.038;5.858;2022-07-30T02:39:41;20.14;62.73
65884;HTU21D;52663;51.038;5.858;2022-07-30T02:42:11;20.11;62.67
65884;HTU21D;52663;51.038;5.858;2022-07-30T02:44:42;20.05;62.81
65884;HTU21D;52663;51.038;5.858;2022-07-30T02:47:13;20.03;62.71
65884;HTU21D;52663;51.038;5.858;2022-07-30T02:49:43;19.98;62.84
65884;HTU21D;52663;51.038;5.858;2022-07-30T02:52:12;20.00;62.82
65884;HTU21D;52663;51.038;5.858;2022-07-30T02:54:42;19.95;62.94
65884;HTU21D;52663;51.038;5.858;2022-07-30T02:57:10;19.92;63.07
65884;HTU21D;52663;51.038;5.858;2022-07-30T02:59:39;19.91;63.12
65884;HTU21D;52663;51.038;5.858;2022-07-30T03:02:08;19.87;63.29
65884;HTU21D;52663;51.038;5.858;2022-07-30T03:04:38;19.85;63.34
65884;HTU21D;52663;51.038;5.858;2022-07-30T03:07:05;19.79;63.50
65884;HTU21D;52663;51.038;5.858;2022-07-30T03:09:35;19.71;63.76
65884;HTU21D;52663;51.038;5.858;2022-07-30T03:12:03;19.67;63.97
65884;HTU21D;52663;51.038;5.858;2022-07-30T03:14:30;19.62;64.17
65884;HTU21D;52663;51.038;5.858;2022-07-30T03:16:58;19.59;64.35
65884;HTU21D;52663;51.038;5.858;2022-07-30T03:19:29;19.56;64.43
65884;HTU21D;52663;51.038;5.858;2022-07-30T03:22:02;19.53;64.47
65884;HTU21D;52663;51.038;5.858;2022-07-30T03:24:30;19.52;64.50
65884;HTU21D;52663;51.038;5.858;2022-07-30T03:26:59;19.50;64.55
65884;HTU21D;52663;51.038;5.858;2022-07-30T03:29:30;19.43;64.85
65884;HTU21D;52663;51.038;5.858;2022-07-30T03:31:57;19.39;64.99
65884;HTU21D;52663;51.038;5.858;2022-07-30T03:34:25;19.37;65.13
65884;HTU21D;52663;51.038;5.858;2022-07-30T03:36:52;19.33;65.29
65884;HTU21D;52663;51.038;5.858;2022-07-30T03:39:19;19.29;65.46
65884;HTU21D;52663;51.038;5.858;2022-07-30T03:41:48;19.26;65.62
65884;HTU21D;52663;51.038;5.858;2022-07-30T03:44:15;19.25;65.74
65884;HTU21D;52663;51.038;5.858;2022-07-30T03:46:42;19.23;65.84
65884;HTU21D;52663;51.038;5.858;2022-07-30T03:49:09;19.20;66.05
65884;HTU21D;52663;51.038;5.858;2022-07-30T03:51:38;19.15;66.22
65884;HTU21D;52663;51.038;5.858;2022-07-30T03:54:05;19.12;66.33
65884;HTU21D;52663;51.038;5.858;2022-07-30T03:56:34;19.07;66.53
65884;HTU21D;52663;51.038;5.858;2022-07-30T03:59:23;18.99;66.99
65884;HTU21D;52663;51.038;5.858;2022-07-30T04:02:06;18.94;67.17
65884;HTU21D;52663;51.038;5.858;2022-07-30T04:04:54;18.88;67.51
65884;HTU21D;52663;51.038;5.858;2022-07-30T04:07:21;18.85;67.63
65884;HTU21D;52663;51.038;5.858;2022-07-30T04:09:47;18.83;67.80
65884;HTU21D;52663;51.038;5.858;2022-07-30T04:12:27;18.85;67.81
65884;HTU21D;52663;51.038;5.858;2022-07-30T04:14:53;18.83;67.83
65884;HTU21D;52663;51.038;5.858;2022-07-30T04:17:28;18.82;67.84
65884;HTU21D;52663;51.038;5.858;2022-07-30T04:20:02;18.80;68.13
65884;HTU21D;52663;51.038;5.858;2022-07-30T04:22:35;18.80;68.30
65884;HTU21D;52663;51.038;5.858;2022-07-30T04:25:02;18.84;68.20
65884;HTU21D;52663;51.038;5.858;2022-07-30T04:27:31;18.91;68.20
65884;HTU21D;52663;51.038;5.858;2022-07-30T04:29:58;18.98;67.94
65884;HTU21D;52663;51.038;5.858;2022-07-30T04:32:25;19.00;67.82
65884;HTU21D;52663;51.038;5.858;2022-07-30T04:35:14;19.05;67.96
65884;HTU21D;52663;51.038;5.858;2022-07-30T04:38:05;19.13;67.79
65884;HTU21D;52663;51.038;5.858;2022-07-30T04:40:32;19.10;68.04
65884;HTU21D;52663;51.038;5.858;2022-07-30T04:42:58;19.02;68.55
65884;HTU21D;52663;51.038;5.858;2022-07-30T04:45:24;18.98;68.79
65884;HTU21D;52663;51.038;5.858;2022-07-30T04:47:53;18.95;69.07
65884;HTU21D;52663;51.038;5.858;2022-07-30T04:50:35;19.01;69.13
65884;HTU21D;52663;51.038;5.858;2022-07-30T04:53:06;19.02;69.07
65884;HTU21D;52663;51.038;5.858;2022-07-30T04:55:41;19.02;69.10
65884;HTU21D;52663;51.038;5.858;2022-07-30T04:58:09;19.01;69.33
65884;HTU21D;52663;51.038;5.858;2022-07-30T05:00:38;19.02;69.44
65884;HTU21D;52663;51.038;5.858;2022-07-30T05:03:08;18.99;69.62
65884;HTU21D;52663;51.038;5.858;2022-07-30T05:05:37;19.00;69.81
65884;HTU21D;52663;51.038;5.858;2022-07-30T05:08:04;19.00;70.01
65884;HTU21D;52663;51.038;5.858;2022-07-30T05:10:31;19.09;69.93
65884;HTU21D;52663;51.038;5.858;2022-07-30T05:12:57;19.22;69.64
65884;HTU21D;52663;51.038;5.858;2022-07-30T05:15:24;19.28;69.45
65884;HTU21D;52663;51.038;5.858;2022-07-30T05:17:50;19.36;69.23
65884;HTU21D;52663;51.038;5.858;2022-07-30T05:20:16;19.37;69.31
65884;HTU21D;52663;51.038;5.858;2022-07-30T05:22:55;19.32;69.61
65884;HTU21D;52663;51.038;5.858;2022-07-30T05:25:24;19.33;69.92
65884;HTU21D;52663;51.038;5.858;2022-07-30T05:27:54;19.38;69.98
65884;HTU21D;52663;51.038;5.858;2022-07-30T05:30:23;19.42;69.94
65884;HTU21D;52663;51.038;5.858;2022-07-30T05:32:49;19.45;70.11
65884;HTU21D;52663;51.038;5.858;2022-07-30T05:35:15;19.48;70.19
65884;HTU21D;52663;51.038;5.858;2022-07-30T05:37:41;19.56;70.07
65884;HTU21D;52663;51.038;5.858;2022-07-30T05:40:07;19.63;70.04
65884;HTU21D;52663;51.038;5.858;2022-07-30T05:42:52;19.71;69.87
65884;HTU21D;52663;51.038;5.858;2022-07-30T05:45:18;19.79;69.97
65884;HTU21D;52663;51.038;5.858;2022-07-30T05:47:45;19.85;69.92
65884;HTU21D;52663;51.038;5.858;2022-07-30T05:50:11;19.83;69.96
65884;HTU21D;52663;51.038;5.858;2022-07-30T05:52:37;19.74;70.33
65884;HTU21D;52663;51.038;5.858;2022-07-30T05:55:20;19.74;70.71
65884;HTU21D;52663;51.038;5.858;2022-07-30T05:57:59;19.79;70.56
65884;HTU21D;52663;51.038;5.858;2022-07-30T06:00:25;19.81;70.66
65884;HTU21D;52663;51.038;5.858;2022-07-30T06:02:53;19.85;70.68
65884;HTU21D;52663;51.038;5.858;2022-07-30T06:05:24;19.94;70.59
65884;HTU21D;52663;51.038;5.858;2022-07-30T06:07:53;20.03;70.14
65884;HTU21D;52663;51.038;5.858;2022-07-30T06:10:21;20.04;70.08
65884;HTU21D;52663;51.038;5.858;2022-07-30T06:12:47;20.09;70.16
65884;HTU21D;52663;51.038;5.858;2022-07-30T06:15:15;20.18;69.85
65884;HTU21D;52663;51.038;5.858;2022-07-30T06:17:43;20.30;69.49
65884;HTU21D;52663;51.038;5.858;2022-07-30T06:20:26;20.32;69.36
65884;HTU21D;52663;51.038;5.858;2022-07-30T06:23:18;20.28;69.52
65884;HTU21D;52663;51.038;5.858;2022-07-30T06:25:56;20.32;69.47
65884;HTU21D;52663;51.038;5.858;2022-07-30T06:28:23;20.41;69.26
65884;HTU21D;52663;51.038;5.858;2022-07-30T06:30:50;20.46;68.97
65884;HTU21D;52663;51.038;5.858;2022-07-30T06:33:17;20.45;68.88
65884;HTU21D;52663;51.038;5.858;2022-07-30T06:35:47;20.45;69.00
65884;HTU21D;52663;51.038;5.858;2022-07-30T06:38:17;20.48;68.98
65884;HTU21D;52663;51.038;5.858;2022-07-30T06:40:55;20.48;69.07
65884;HTU21D;52663;51.038;5.858;2022-07-30T06:43:54;20.47;69.11
65884;HTU21D;52663;51.038;5.858;2022-07-30T06:46:35;20.55;68.97
65884;HTU21D;52663;51.038;5.858;2022-07-30T06:49:01;20.59;68.83
65884;HTU21D;52663;51.038;5.858;2022-07-30T06:51:28;20.63;68.67
65884;HTU21D;52663;51.038;5.858;2022-07-30T06:53:53;20.61;68.78
65884;HTU21D;52663;51.038;5.858;2022-07-30T06:56:34;20.62;68.95
65884;HTU21D;52663;51.038;5.858;2022-07-30T06:59:03;20.61;69.10
65884;HTU21D;52663;51.038;5.858;2022-07-30T07:01:49;20.69;69.00
65884;HTU21D;52663;51.038;5.858;2022-07-30T07:04:23;20.77;68.38
65884;HTU21D;52663;51.038;5.858;2022-07-30T07:06:49;20.78;68.12
65884;HTU21D;52663;51.038;5.858;2022-07-30T07:09:24;20.86;68.17
65884;HTU21D;52663;51.038;5.858;2022-07-30T07:12:07;21.04;67.91
65884;HTU21D;52663;51.038;5.858;2022-07-30T07:14:33;21.18;67.36
65884;HTU21D;52663;51.038;5.858;2022-07-30T07:16:58;21.23;66.87
65884;HTU21D;52663;51.038;5.858;2022-07-30T07:19:57;21.34;66.06
65884;HTU21D;52663;51.038;5.858;2022-07-30T07:22:26;21.43;65.72
65884;HTU21D;52663;51.038;5.858;2022-07-30T07:24:52;21.49;65.41
65884;HTU21D;52663;51.038;5.858;2022-07-30T07:27:22;21.70;64.97
65884;HTU21D;52663;51.038;5.858;2022-07-30T07:29:52;21.91;64.08
65884;HTU21D;52663;51.038;5.858;2022-07-30T07:32:18;21.92;63.59
65884;HTU21D;52663;51.038;5.858;2022-07-30T07:34:44;22.03;63.41
65884;HTU21D;52663;51.038;5.858;2022-07-30T07:37:09;22.13;63.53
65884;HTU21D;52663;51.038;5.858;2022-07-30T07:39:36;22.28;62.81
65884;HTU21D;52663;51.038;5.858;2022-07-30T07:42:02;22.27;62.15
65884;HTU21D;52663;51.038;5.858;2022-07-30T07:44:29;22.16;62.27
65884;HTU21D;52663;51.038;5.858;2022-07-30T07:46:55;22.12;62.47
65884;HTU21D;52663;51.038;5.858;2022-07-30T07:49:24;22.14;62.67
65884;HTU21D;52663;51.038;5.858;2022-07-30T07:51:51;22.29;62.16
65884;HTU21D;52663;51.038;5.858;2022-07-30T07:54:18;22.42;61.41
65884;HTU21D;52663;51.038;5.858;2022-07-30T07:56:44;22.49;61.13
65884;HTU21D;52663;51.038;5.858;2022-07-30T07:59:13;22.62;60.52
65884;HTU21D;52663;51.038;5.858;2022-07-30T08:01:39;22.86;59.90
65884;HTU21D;52663;51.038;5.858;2022-07-30T08:04:25;23.13;58.48
65884;HTU21D;52663;51.038;5.858;2022-07-30T08:07:11;23.28;57.35
65884;HTU21D;52663;51.038;5.858;2022-07-30T08:09:40;23.32;56.19
65884;HTU21D;52663;51.038;5.858;2022-07-30T08:12:14;23.28;55.94
65884;HTU21D;52663;51.038;5.858;2022-07-30T08:15:00;23.34;55.49
65884;HTU21D;52663;51.038;5.858;2022-07-30T08:17:53;23.34;55.68
65884;HTU21D;52663;51.038;5.858;2022-07-30T08:20:31;23.37;55.14
65884;HTU21D;52663;51.038;5.858;2022-07-30T08:22:57;23.37;54.56
65884;HTU21D;52663;51.038;5.858;2022-07-30T08:25:25;23.43;54.33
65884;HTU21D;52663;51.038;5.858;2022-07-30T08:27:55;23.55;53.22
65884;HTU21D;52663;51.038;5.858;2022-07-30T08:30:21;23.64;53.07
65884;HTU21D;52663;51.038;5.858;2022-07-30T08:32:46;23.81;52.74
65884;HTU21D;52663;51.038;5.858;2022-07-30T08:35:12;23.66;52.80
65884;HTU21D;52663;51.038;5.858;2022-07-30T08:37:40;23.68;52.83
65884;HTU21D;52663;51.038;5.858;2022-07-30T08:40:07;23.81;51.91
65884;HTU21D;52663;51.038;5.858;2022-07-30T08:42:38;23.88;51.33
65884;HTU21D;52663;51.038;5.858;2022-07-30T08:45:04;24.03;50.95
65884;HTU21D;52663;51.038;5.858;2022-07-30T08:47:32;24.00;50.89
65884;HTU21D;52663;51.038;5.858;2022-07-30T08:50:10;24.08;51.08
65884;HTU21D;52663;51.038;5.858;2022-07-30T08:52:50;24.25;51.04
65884;HTU21D;52663;51.038;5.858;2022-07-30T08:55:24;24.53;50.15
65884;HTU21D;52663;51.038;5.858;2022-07-30T08:57:50;24.77;49.37
65884;HTU21D;52663;51.038;5.858;2022-07-30T09:00:17;24.98;48.86
65884;HTU21D;52663;51.038;5.858;2022-07-30T09:02:43;25.09;47.92
65884;HTU21D;52663;51.038;5.858;2022-07-30T09:05:10;25.12;47.35
65884;HTU21D;52663;51.038;5.858;2022-07-30T09:07:37;25.06;47.22
65884;HTU21D;52663;51.038;5.858;2022-07-30T09:10:07;25.27;46.56
65884;HTU21D;52663;51.038;5.858;2022-07-30T09:12:43;25.48;46.31
65884;HTU21D;52663;51.038;5.858;2022-07-30T09:15:19;25.56;46.01
65884;HTU21D;52663;51.038;5.858;2022-07-30T09:17:59;25.62;45.80
65884;HTU21D;52663;51.038;5.858;2022-07-30T09:20:29;25.71;45.68
65884;HTU21D;52663;51.038;5.858;2022-07-30T09:23:00;25.67;45.45
65884;HTU21D;52663;51.038;5.858;2022-07-30T09:25:47;25.66;44.97
65884;HTU21D;52663;51.038;5.858;2022-07-30T09:28:33;25.69;44.87
65884;HTU21D;52663;51.038;5.858;2022-07-30T09:32:01;25.93;44.75
65884;HTU21D;52663;51.038;5.858;2022-07-30T09:34:45;26.13;43.77
65884;HTU21D;52663;51.038;5.858;2022-07-30T09:37:40;26.08;43.64
65884;HTU21D;52663;51.038;5.858;2022-07-30T09:40:49;26.34;42.30
65884;HTU21D;52663;51.038;5.858;2022-07-30T09:43:49;26.53;42.18
65884;HTU21D;52663;51.038;5.858;2022-07-30T09:46:46;26.58;41.74
65884;HTU21D;52663;51.038;5.858;2022-07-30T09:49:27;26.63;41.27
65884;HTU21D;52663;51.038;5.858;2022-07-30T09:51:55;26.77;41.25
65884;HTU21D;52663;51.038;5.858;2022-07-30T09:54:21;27.04;40.95
65884;HTU21D;52663;51.038;5.858;2022-07-30T09:57:02;27.31;40.31
65884;HTU21D;52663;51.038;5.858;2022-07-30T09:59:31;27.60;39.69
65884;HTU21D;52663;51.038;5.858;2022-07-30T10:01:58;27.63;39.68
65884;HTU21D;52663;51.038;5.858;2022-07-30T10:05:10;27.83;38.93
65884;HTU21D;52663;51.038;5.858;2022-07-30T10:07:37;28.05;38.30
65884;HTU21D;52663;51.038;5.858;2022-07-30T10:10:04;28.38;37.43
65884;HTU21D;52663;51.038;5.858;2022-07-30T10:12:32;28.70;36.60
65884;HTU21D;52663;51.038;5.858;2022-07-30T10:15:00;29.05;36.62
65884;HTU21D;52663;51.038;5.858;2022-07-30T10:17:30;29.20;35.85
65884;HTU21D;52663;51.038;5.858;2022-07-30T10:20:18;29.17;35.86
65884;HTU21D;52663;51.038;5.858;2022-07-30T10:23:06;29.27;35.66
65884;HTU21D;52663;51.038;5.858;2022-07-30T10:25:36;29.37;35.57
65884;HTU21D;52663;51.038;5.858;2022-07-30T10:28:32;29.56;35.24
65884;HTU21D;52663;51.038;5.858;2022-07-30T10:30:59;29.46;33.72
65884;HTU21D;52663;51.038;5.858;2022-07-30T10:33:27;29.50;34.60
65884;HTU21D;52663;51.038;5.858;2022-07-30T10:35:54;29.60;34.46
65884;HTU21D;52663;51.038;5.858;2022-07-30T10:38:25;29.74;34.38
65884;HTU21D;52663;51.038;5.858;2022-07-30T10:41:00;30.11;33.73
65884;HTU21D;52663;51.038;5.858;2022-07-30T10:43:44;30.52;33.14
65884;HTU21D;52663;51.038;5.858;2022-07-30T10:46:44;31.22;32.01
65884;HTU21D;52663;51.038;5.858;2022-07-30T10:49:15;31.71;31.21
65884;HTU21D;52663;51.038;5.858;2022-07-30T10:51:49;32.23;30.44
65884;HTU21D;52663;51.038;5.858;2022-07-30T10:57:14;32.55;29.03
65884;HTU21D;52663;51.038;5.858;2022-07-30T11:02:28;32.75;28.77
65884;HTU21D;52663;51.038;5.858;2022-07-30T11:07:44;32.96;28.13
65884;HTU21D;52663;51.038;5.858;2022-07-30T11:10:39;33.25;26.51
65884;HTU21D;52663;51.038;5.858;2022-07-30T11:13:08;33.00;27.55
65884;HTU21D;52663;51.038;5.858;2022-07-30T11:15:56;33.00;27.74
65884;HTU21D;52663;51.038;5.858;2022-07-30T11:18:23;33.34;26.93
65884;HTU21D;52663;51.038;5.858;2022-07-30T11:21:18;33.63;26.56
65884;HTU21D;52663;51.038;5.858;2022-07-30T11:23:45;33.58;26.09
65884;HTU21D;52663;51.038;5.858;2022-07-30T11:29:38;33.43;26.14
65884;HTU21D;52663;51.038;5.858;2022-07-30T11:32:30;33.23;26.19
65884;HTU21D;52663;51.038;5.858;2022-07-30T11:38:06;33.27;26.97
65884;HTU21D;52663;51.038;5.858;2022-07-30T11:45:49;34.59;24.44
65884;HTU21D;52663;51.038;5.858;2022-07-30T11:48:19;34.99;23.50
65884;HTU21D;52663;51.038;5.858;2022-07-30T11:50:46;34.97;23.45
65884;HTU21D;52663;51.038;5.858;2022-07-30T11:53:15;35.14;23.46
65884;HTU21D;52663;51.038;5.858;2022-07-30T11:55:45;35.27;23.21
65884;HTU21D;52663;51.038;5.858;2022-07-30T11:58:27;35.23;23.29
65884;HTU21D;52663;51.038;5.858;2022-07-30T12:00:57;35.58;22.98
65884;HTU21D;52663;51.038;5.858;2022-07-30T12:03:25;35.85;22.38
65884;HTU21D;52663;51.038;5.858;2022-07-30T12:05:52;35.92;22.27
65884;HTU21D;52663;51.038;5.858;2022-07-30T12:08:18;36.19;21.88
65884;HTU21D;52663;51.038;5.858;2022-07-30T12:10:58;36.67;21.45
65884;HTU21D;52663;51.038;5.858;2022-07-30T12:13:25;36.28;20.97
65884;HTU21D;52663;51.038;5.858;2022-07-30T12:15:51;35.81;21.95
65884;HTU21D;52663;51.038;5.858;2022-07-30T12:18:28;34.97;23.21
65884;HTU21D;52663;51.038;5.858;2022-07-30T12:21:03;35.04;23.40
65884;HTU21D;52663;51.038;5.858;2022-07-30T12:23:34;35.23;22.72
65884;HTU21D;52663;51.038;5.858;2022-07-30T12:26:01;34.89;23.59
65884;HTU21D;52663;51.038;5.858;2022-07-30T12:28:31;34.59;24.36
65884;HTU21D;52663;51.038;5.858;2022-07-30T12:31:01;34.62;24.60
65884;HTU21D;52663;51.038;5.858;2022-07-30T12:33:29;34.50;24.27
65884;HTU21D;52663;51.038;5.858;2022-07-30T12:35:58;34.27;24.83
65884;HTU21D;52663;51.038;5.858;2022-07-30T12:38:42;34.22;25.29
65884;HTU21D;52663;51.038;5.858;2022-07-30T12:41:13;33.57;26.17
65884;HTU21D;52663;51.038;5.858;2022-07-30T12:43:50;33.08;27.00
65884;HTU21D;52663;51.038;5.858;2022-07-30T12:48:58;32.62;27.79
65884;HTU21D;52663;51.038;5.858;2022-07-30T12:51:33;32.61;27.60
65884;HTU21D;52663;51.038;5.858;2022-07-30T12:54:06;32.43;27.83
65884;HTU21D;52663;51.038;5.858;2022-07-30T12:56:38;31.68;29.08
65884;HTU21D;52663;51.038;5.858;2022-07-30T12:59:20;30.77;30.84
65884;HTU21D;52663;51.038;5.858;2022-07-30T13:01:46;30.26;32.14
65884;HTU21D;52663;51.038;5.858;2022-07-30T13:04:14;30.21;32.59
65884;HTU21D;52663;51.038;5.858;2022-07-30T13:06:40;30.47;32.12
65884;HTU21D;52663;51.038;5.858;2022-07-30T13:09:20;30.55;32.21
65884;HTU21D;52663;51.038;5.858;2022-07-30T13:11:47;30.46;32.51
65884;HTU21D;52663;51.038;5.858;2022-07-30T13:14:14;30.36;32.55
65884;HTU21D;52663;51.038;5.858;2022-07-30T13:16:42;30.38;32.43
65884;HTU21D;52663;51.038;5.858;2022-07-30T13:19:10;30.44;32.64
65884;HTU21D;52663;51.038;5.858;2022-07-30T13:21:37;30.64;32.22
65884;HTU21D;52663;51.038;5.858;2022-07-30T13:24:04;30.89;31.03
65884;HTU21D;52663;51.038;5.858;2022-07-30T13:26:30;30.60;31.51
65884;HTU21D;52663;51.038;5.858;2022-07-30T13:28:57;30.49;31.90
65884;HTU21D;52663;51.038;5.858;2022-07-30T13:31:23;30.59;31.73
65884;HTU21D;52663;51.038;5.858;2022-07-30T13:33:50;30.70;31.70
65884;HTU21D;52663;51.038;5.858;2022-07-30T13:36:16;30.78;32.11
65884;HTU21D;52663;51.038;5.858;2022-07-30T13:38:43;31.00;31.58
65884;HTU21D;52663;51.038;5.858;2022-07-30T13:41:09;31.09;31.50
65884;HTU21D;52663;51.038;5.858;2022-07-30T13:43:35;31.13;31.46
65884;HTU21D;52663;51.038;5.858;2022-07-30T13:46:02;31.04;31.64
65884;HTU21D;52663;51.038;5.858;2022-07-30T13:48:29;31.00;31.80
65884;HTU21D;52663;51.038;5.858;2022-07-30T13:50:54;31.02;31.53
65884;HTU21D;52663;51.038;5.858;2022-07-30T13:53:21;30.84;32.02
65884;HTU21D;52663;51.038;5.858;2022-07-30T13:55:47;30.83;32.13
65884;HTU21D;52663;51.038;5.858;2022-07-30T13:58:13;30.82;32.09
65884;HTU21D;52663;51.038;5.858;2022-07-30T14:00:39;30.76;31.73
65884;HTU21D;52663;51.038;5.858;2022-07-30T14:03:07;30.47;31.60
65884;HTU21D;52663;51.038;5.858;2022-07-30T14:05:34;30.25;31.77
65884;HTU21D;52663;51.038;5.858;2022-07-30T14:08:04;30.08;32.42
65884;HTU21D;52663;51.038;5.858;2022-07-30T14:10:31;30.01;32.80
65884;HTU21D;52663;51.038;5.858;2022-07-30T14:12:57;29.98;32.83
65884;HTU21D;52663;51.038;5.858;2022-07-30T14:15:27;29.95;32.93
65884;HTU21D;52663;51.038;5.858;2022-07-30T14:17:53;29.96;33.15
65884;HTU21D;52663;51.038;5.858;2022-07-30T14:20:19;29.98;33.09
65884;HTU21D;52663;51.038;5.858;2022-07-30T14:22:45;29.95;33.31
65884;HTU21D;52663;51.038;5.858;2022-07-30T14:25:11;30.04;32.70
65884;HTU21D;52663;51.038;5.858;2022-07-30T14:27:37;29.96;32.67
65884;HTU21D;52663;51.038;5.858;2022-07-30T14:30:06;29.89;32.61
65884;HTU21D;52663;51.038;5.858;2022-07-30T14:32:32;29.75;32.54
65884;HTU21D;52663;51.038;5.858;2022-07-30T14:35:03;29.78;32.63
65884;HTU21D;52663;51.038;5.858;2022-07-30T14:37:29;29.97;32.86
65884;HTU21D;52663;51.038;5.858;2022-07-30T14:39:55;30.16;32.72
65884;HTU21D;52663;51.038;5.858;2022-07-30T14:42:20;30.17;32.64
65884;HTU21D;52663;51.038;5.858;2022-07-30T14:44:48;30.28;32.64
65884;HTU21D;52663;51.038;5.858;2022-07-30T14:47:14;30.30;32.68
65884;HTU21D;52663;51.038;5.858;2022-07-30T14:49:40;30.18;32.91
65884;HTU21D;52663;51.038;5.858;2022-07-30T14:52:06;30.05;33.05
65884;HTU21D;52663;51.038;5.858;2022-07-30T14:54:31;30.10;32.37
65884;HTU21D;52663;51.038;5.858;2022-07-30T14:56:58;30.09;32.19
65884;HTU21D;52663;51.038;5.858;2022-07-30T14:59:24;30.07;32.10
65884;HTU21D;52663;51.038;5.858;2022-07-30T15:01:52;30.11;32.51
65884;HTU21D;52663;51.038;5.858;2022-07-30T15:04:19;30.22;32.53
65884;HTU21D;52663;51.038;5.858;2022-07-30T15:06:45;30.32;32.57
65884;HTU21D;52663;51.038;5.858;2022-07-30T15:09:12;30.26;32.30
65884;HTU21D;52663;51.038;5.858;2022-07-30T15:11:38;30.21;32.60
65884;HTU21D;52663;51.038;5.858;2022-07-30T15:14:05;30.23;32.62
65884;HTU21D;52663;51.038;5.858;2022-07-30T15:16:30;30.28;32.30
65884;HTU21D;52663;51.038;5.858;2022-07-30T15:18:56;30.27;32.54
65884;HTU21D;52663;51.038;5.858;2022-07-30T15:21:23;30.28;32.87
65884;HTU21D;52663;51.038;5.858;2022-07-30T15:23:49;30.20;32.41
65884;HTU21D;52663;51.038;5.858;2022-07-30T15:26:15;30.09;32.48
65884;HTU21D;52663;51.038;5.858;2022-07-30T15:28:41;30.18;32.62
65884;HTU21D;52663;51.038;5.858;2022-07-30T15:31:07;30.28;32.43
65884;HTU21D;52663;51.038;5.858;2022-07-30T15:33:32;30.20;32.21
65884;HTU21D;52663;51.038;5.858;2022-07-30T15:35:58;30.12;32.43
65884;HTU21D;52663;51.038;5.858;2022-07-30T15:38:24;30.00;32.57
65884;HTU21D;52663;51.038;5.858;2022-07-30T15:40:50;29.89;32.60
65884;HTU21D;52663;51.038;5.858;2022-07-30T15:43:15;29.82;32.86
65884;HTU21D;52663;51.038;5.858;2022-07-30T15:45:42;29.74;32.95
65884;HTU21D;52663;51.038;5.858;2022-07-30T15:48:07;29.70;32.85
65884;HTU21D;52663;51.038;5.858;2022-07-30T15:50:34;29.54;32.99
65884;HTU21D;52663;51.038;5.858;2022-07-30T15:53:01;29.53;33.05
65884;HTU21D;52663;51.038;5.858;2022-07-30T15:55:28;29.62;33.28
65884;HTU21D;52663;51.038;5.858;2022-07-30T15:57:54;29.59;33.54
65884;HTU21D;52663;51.038;5.858;2022-07-30T16:00:22;29.56;33.76
65884;HTU21D;52663;51.038;5.858;2022-07-30T16:02:47;29.58;34.02